createdAt,value
2023-01-22T00:00:02.334Z,0.00
2023-01-22T00:01:02.172Z,0.00
2023-01-22T00:02:02.195Z,0.00
2023-01-22T00:03:02.155Z,0.00
2023-01-22T00:04:02.238Z,0.00
2023-01-22T00:05:02.133Z,0.00
2023-01-22T00:06:02.473Z,0.00
2023-01-22T00:07:02.113Z,0.00
2023-01-22T00:08:02.168Z,0.00
2023-01-22T00:09:02.083Z,0.00
2023-01-22T00:10:02.112Z,0.00
2023-01-22T00:11:02.083Z,0.00
2023-01-22T00:12:02.083Z,0.00
2023-01-22T00:13:02.070Z,0.00
2023-01-22T00:14:02.099Z,0.00
2023-01-22T00:15:02.033Z,0.00
2023-01-22T00:16:02.129Z,0.00
2023-01-22T00:17:01.994Z,0.00
2023-01-22T00:18:02.050Z,0.00
2023-01-22T00:19:02.001Z,0.00
2023-01-22T00:20:02.051Z,0.00
2023-01-22T00:21:01.968Z,0.00
2023-01-22T00:22:01.972Z,0.00
2023-01-22T00:23:01.962Z,0.00
2023-01-22T00:24:01.935Z,0.00
2023-01-22T00:25:01.913Z,0.00
2023-01-22T00:26:01.969Z,0.00
2023-01-22T00:27:01.908Z,0.00
2023-01-22T00:28:01.894Z,0.00
2023-01-22T00:29:01.875Z,0.00
2023-01-22T00:30:01.949Z,0.00
2023-01-22T00:31:01.986Z,0.00
2023-01-22T00:32:02.033Z,0.00
2023-01-22T00:33:01.912Z,0.00
2023-01-22T00:34:01.832Z,0.00
2023-01-22T00:35:01.829Z,0.00
2023-01-22T00:36:01.857Z,0.00
2023-01-22T00:37:01.784Z,0.00
2023-01-22T00:38:01.783Z,0.00
2023-01-22T00:39:01.792Z,0.00
2023-01-22T00:40:01.765Z,0.00
2023-01-22T00:41:01.804Z,0.00
2023-01-22T00:42:01.755Z,0.00
2023-01-22T00:43:01.829Z,0.00
2023-01-22T00:44:01.787Z,0.00
2023-01-22T00:45:01.698Z,0.00
2023-01-22T00:46:01.715Z,0.00
2023-01-22T00:47:01.674Z,0.00
2023-01-22T00:48:01.684Z,0.00
2023-01-22T00:49:01.654Z,0.00
2023-01-22T00:50:01.736Z,0.00
2023-01-22T00:51:01.693Z,0.00
2023-01-22T00:52:01.632Z,0.00
2023-01-22T00:53:01.621Z,0.00
2023-01-22T00:54:01.661Z,0.00
2023-01-22T00:55:01.592Z,0.00
2023-01-22T00:56:01.652Z,0.00
2023-01-22T00:57:01.578Z,0.00
2023-01-22T00:58:01.582Z,0.00
2023-01-22T00:59:01.564Z,0.00
2023-01-22T01:00:01.558Z,0.00
2023-01-22T01:01:01.620Z,0.00
2023-01-22T01:02:01.541Z,0.00
2023-01-22T01:03:01.547Z,0.00
2023-01-22T01:04:01.560Z,0.00
2023-01-22T01:05:01.501Z,0.00
2023-01-22T01:06:01.532Z,0.00
2023-01-22T01:07:01.471Z,0.00
2023-01-22T01:08:01.466Z,0.00
2023-01-22T01:09:01.462Z,0.00
2023-01-22T01:10:01.452Z,0.00
2023-01-22T01:11:01.455Z,0.00
2023-01-22T01:12:01.438Z,0.00
2023-01-22T01:13:01.404Z,0.00
2023-01-22T01:14:01.409Z,0.00
2023-01-22T01:15:01.391Z,0.00
2023-01-22T01:16:01.482Z,0.00
2023-01-22T01:17:01.372Z,0.00
2023-01-22T01:18:01.364Z,0.00
2023-01-22T01:19:01.343Z,0.00
2023-01-22T01:20:01.356Z,0.00
2023-01-22T01:21:01.351Z,0.00
2023-01-22T01:22:01.314Z,0.00
2023-01-22T01:23:01.358Z,0.00
2023-01-22T01:24:01.317Z,0.00
2023-01-22T01:25:01.335Z,0.00
2023-01-22T01:26:01.287Z,0.00
2023-01-22T01:27:01.271Z,0.00
2023-01-22T01:28:01.256Z,0.00
2023-01-22T01:29:01.237Z,0.00
2023-01-22T01:30:01.236Z,0.00
2023-01-22T01:31:01.332Z,0.00
2023-01-22T01:32:01.408Z,0.00
2023-01-22T01:33:01.194Z,0.00
2023-01-22T01:34:01.187Z,0.00
2023-01-22T01:35:01.216Z,0.00
2023-01-22T01:36:01.176Z,0.00
2023-01-22T01:37:01.147Z,0.00
2023-01-22T01:38:01.155Z,0.00
2023-01-22T01:39:01.135Z,0.00
2023-01-22T01:40:01.117Z,0.00
2023-01-22T01:41:01.145Z,0.00
2023-01-22T01:42:01.095Z,0.00
2023-01-22T01:43:01.091Z,0.00
2023-01-22T01:44:01.086Z,0.00
2023-01-22T01:45:01.076Z,0.00
2023-01-22T01:46:01.058Z,0.00
2023-01-22T01:47:01.051Z,0.00
2023-01-22T01:48:01.052Z,0.00
2023-01-22T01:49:01.046Z,0.00
2023-01-22T01:50:01.016Z,0.00
2023-01-22T01:51:01.046Z,0.00
2023-01-22T01:52:00.989Z,0.00
2023-01-22T01:53:00.996Z,0.00
2023-01-22T01:54:00.967Z,0.00
2023-01-22T01:55:00.964Z,0.00
2023-01-22T01:56:00.981Z,0.00
2023-01-22T01:57:00.951Z,0.00
2023-01-22T01:58:00.927Z,0.00
2023-01-22T01:59:00.934Z,0.00
2023-01-22T02:00:00.906Z,0.00
2023-01-22T02:01:00.963Z,0.00
2023-01-22T02:02:00.913Z,0.00
2023-01-22T02:03:00.876Z,0.00
2023-01-22T02:04:00.881Z,0.00
2023-01-22T02:05:00.862Z,0.00
2023-01-22T02:06:01.156Z,0.00
2023-01-22T02:07:00.850Z,0.00
2023-01-22T02:08:00.826Z,0.00
2023-01-22T02:09:00.815Z,0.00
2023-01-22T02:10:00.808Z,0.00
2023-01-22T02:11:00.809Z,0.00
2023-01-22T02:12:00.787Z,0.00
2023-01-22T02:13:00.768Z,0.00
2023-01-22T02:14:00.772Z,0.00
2023-01-22T02:15:00.749Z,0.00
2023-01-22T02:16:00.815Z,0.00
2023-01-22T02:17:00.737Z,0.00
2023-01-22T02:18:00.737Z,0.00
2023-01-22T02:19:00.717Z,0.00
2023-01-22T02:20:00.717Z,0.00
2023-01-22T02:21:00.709Z,0.00
2023-01-22T02:22:00.685Z,0.00
2023-01-22T02:23:00.669Z,0.00
2023-01-22T02:24:00.670Z,0.00
2023-01-22T02:25:00.658Z,0.00
2023-01-22T02:26:00.665Z,0.00
2023-01-22T02:27:00.642Z,0.00
2023-01-22T02:28:00.620Z,0.00
2023-01-22T02:29:00.605Z,0.00
2023-01-22T02:30:00.599Z,0.00
2023-01-22T02:31:00.607Z,0.00
2023-01-22T02:32:00.582Z,0.00
2023-01-22T02:33:00.561Z,0.00
2023-01-22T02:34:00.580Z,0.00
2023-01-22T02:35:00.565Z,0.00
2023-01-22T02:36:00.553Z,0.00
2023-01-22T02:37:00.526Z,0.00
2023-01-22T02:38:00.509Z,0.00
2023-01-22T02:39:00.498Z,0.00
2023-01-22T02:40:00.513Z,0.00
2023-01-22T02:41:00.498Z,0.00
2023-01-22T02:42:00.479Z,0.00
2023-01-22T02:43:00.482Z,0.00
2023-01-22T02:44:00.494Z,0.00
2023-01-22T02:45:00.444Z,0.00
2023-01-22T02:46:00.522Z,0.00
2023-01-22T02:47:00.411Z,0.00
2023-01-22T02:48:00.420Z,0.00
2023-01-22T02:49:00.401Z,0.00
2023-01-22T02:50:00.388Z,0.00
2023-01-22T02:51:00.449Z,0.00
2023-01-22T02:52:00.390Z,0.00
2023-01-22T02:53:00.352Z,0.00
2023-01-22T02:54:00.373Z,0.00
2023-01-22T02:55:00.337Z,0.00
2023-01-22T02:56:00.332Z,0.00
2023-01-22T02:57:00.317Z,0.00
2023-01-22T02:58:00.302Z,0.00
2023-01-22T02:59:00.293Z,0.00
2023-01-22T03:00:00.305Z,0.00
2023-01-22T03:01:00.320Z,0.00
2023-01-22T03:02:00.305Z,0.00
2023-01-22T03:03:00.240Z,0.00
2023-01-22T03:04:00.242Z,0.00
2023-01-22T03:05:00.241Z,0.00
2023-01-22T03:06:00.240Z,0.00
2023-01-22T03:07:00.217Z,0.00
2023-01-22T03:08:00.200Z,0.00
2023-01-22T03:09:00.188Z,0.00
2023-01-22T03:10:00.202Z,0.00
2023-01-22T03:11:00.191Z,0.00
2023-01-22T03:12:00.227Z,0.00
2023-01-22T03:13:00.160Z,0.00
2023-01-22T03:14:00.175Z,0.00
2023-01-22T03:15:00.345Z,0.00
2023-01-22T03:16:00.161Z,0.00
2023-01-22T03:17:00.154Z,0.00
2023-01-22T03:18:00.132Z,0.00
2023-01-22T03:19:00.121Z,0.00
2023-01-22T03:20:00.307Z,0.00
2023-01-22T03:21:00.097Z,0.00
2023-01-22T03:22:00.041Z,0.00
2023-01-22T03:23:00.030Z,0.00
2023-01-22T03:24:00.031Z,0.00
2023-01-22T03:25:00.106Z,0.00
2023-01-22T03:26:00.059Z,0.00
2023-01-22T03:26:59.990Z,0.00
2023-01-22T03:27:59.982Z,0.00
2023-01-22T03:28:59.982Z,0.00
2023-01-22T03:29:59.963Z,0.00
2023-01-22T03:31:00.021Z,0.00
2023-01-22T03:31:59.997Z,0.00
2023-01-22T03:32:59.950Z,0.00
2023-01-22T03:33:59.920Z,0.00
2023-01-22T03:34:59.901Z,0.00
2023-01-22T03:35:59.914Z,0.00
2023-01-22T03:36:59.897Z,0.00
2023-01-22T03:37:59.887Z,0.00
2023-01-22T03:38:59.867Z,0.00
2023-01-22T03:39:59.867Z,0.00
2023-01-22T03:40:59.892Z,0.00
2023-01-22T03:41:59.871Z,0.00
2023-01-22T03:42:59.842Z,0.00
2023-01-22T03:43:59.823Z,0.00
2023-01-22T03:44:59.801Z,0.00
2023-01-22T03:45:59.897Z,0.00
2023-01-22T03:46:59.781Z,0.00
2023-01-22T03:47:59.777Z,0.00
2023-01-22T03:48:59.761Z,0.00
2023-01-22T03:49:59.749Z,0.00
2023-01-22T03:50:59.827Z,0.00
2023-01-22T03:51:59.725Z,0.00
2023-01-22T03:52:59.713Z,0.00
2023-01-22T03:53:59.721Z,0.00
2023-01-22T03:54:59.732Z,0.00
2023-01-22T03:55:59.700Z,0.00
2023-01-22T03:56:59.682Z,0.00
2023-01-22T03:57:59.667Z,0.00
2023-01-22T03:58:59.653Z,0.00
2023-01-22T03:59:59.652Z,0.00
2023-01-22T04:00:59.667Z,0.00
2023-01-22T04:01:59.661Z,0.00
2023-01-22T04:02:59.611Z,0.00
2023-01-22T04:03:59.602Z,0.00
2023-01-22T04:04:59.593Z,0.00
2023-01-22T04:05:59.583Z,0.00
2023-01-22T04:06:59.573Z,0.00
2023-01-22T04:07:59.573Z,0.00
2023-01-22T04:08:59.549Z,0.00
2023-01-22T04:09:59.542Z,0.00
2023-01-22T04:10:59.543Z,0.00
2023-01-22T04:11:59.514Z,0.00
2023-01-22T04:12:59.551Z,0.00
2023-01-22T04:13:59.493Z,0.00
2023-01-22T04:14:59.492Z,0.00
2023-01-22T04:15:59.492Z,0.00
2023-01-22T04:16:59.473Z,0.00
2023-01-22T04:17:59.451Z,0.00
2023-01-22T04:18:59.444Z,0.00
2023-01-22T04:19:59.433Z,0.00
2023-01-22T04:20:59.463Z,0.00
2023-01-22T04:21:59.403Z,0.00
2023-01-22T04:22:59.407Z,0.00
2023-01-22T04:23:59.394Z,0.00
2023-01-22T04:24:59.383Z,0.00
2023-01-22T04:25:59.386Z,0.00
2023-01-22T04:26:59.381Z,0.00
2023-01-22T04:27:59.375Z,0.00
2023-01-22T04:28:59.374Z,0.00
2023-01-22T04:29:59.322Z,0.00
2023-01-22T04:30:59.380Z,0.00
2023-01-22T04:31:59.317Z,0.00
2023-01-22T04:32:59.285Z,0.00
2023-01-22T04:33:59.286Z,0.00
2023-01-22T04:34:59.283Z,0.00
2023-01-22T04:35:59.281Z,0.00
2023-01-22T04:36:59.254Z,0.00
2023-01-22T04:37:59.249Z,0.00
2023-01-22T04:38:59.236Z,0.00
2023-01-22T04:39:59.214Z,0.00
2023-01-22T04:40:59.221Z,0.00
2023-01-22T04:41:59.233Z,0.00
2023-01-22T04:42:59.184Z,0.00
2023-01-22T04:43:59.204Z,0.00
2023-01-22T04:44:59.164Z,0.00
2023-01-22T04:45:59.208Z,0.00
2023-01-22T04:46:59.159Z,0.00
2023-01-22T04:47:59.149Z,0.00
2023-01-22T04:48:59.122Z,0.00
2023-01-22T04:49:59.115Z,0.00
2023-01-22T04:50:59.238Z,0.00
2023-01-22T04:51:59.095Z,0.00
2023-01-22T04:52:59.077Z,0.00
2023-01-22T04:53:59.067Z,0.00
2023-01-22T04:54:59.055Z,0.00
2023-01-22T04:55:59.072Z,0.00
2023-01-22T04:56:59.034Z,0.00
2023-01-22T04:57:59.037Z,0.00
2023-01-22T04:58:59.025Z,0.00
2023-01-22T04:59:59.006Z,0.00
2023-01-22T05:00:59.085Z,0.00
2023-01-22T05:01:58.983Z,0.00
2023-01-22T05:02:58.990Z,0.00
2023-01-22T05:03:58.965Z,0.00
2023-01-22T05:04:58.963Z,0.00
2023-01-22T05:05:58.955Z,0.00
2023-01-22T05:06:58.938Z,0.00
2023-01-22T05:07:58.936Z,0.00
2023-01-22T05:08:58.905Z,0.00
2023-01-22T05:09:58.904Z,0.00
2023-01-22T05:10:58.906Z,0.00
2023-01-22T05:11:58.891Z,0.00
2023-01-22T05:12:58.865Z,0.00
2023-01-22T05:13:58.870Z,0.00
2023-01-22T05:14:58.855Z,0.00
2023-01-22T05:15:58.949Z,0.00
2023-01-22T05:16:58.832Z,0.00
2023-01-22T05:17:58.818Z,0.00
2023-01-22T05:18:58.796Z,0.00
2023-01-22T05:19:58.810Z,0.00
2023-01-22T05:20:58.799Z,0.00
2023-01-22T05:21:58.801Z,0.00
2023-01-22T05:22:58.764Z,0.00
2023-01-22T05:23:58.758Z,0.00
2023-01-22T05:24:58.752Z,0.00
2023-01-22T05:25:58.765Z,0.00
2023-01-22T05:26:58.714Z,0.00
2023-01-22T05:27:58.731Z,0.00
2023-01-22T05:28:58.699Z,0.00
2023-01-22T05:29:58.705Z,0.00
2023-01-22T05:30:58.816Z,0.00
2023-01-22T05:31:58.676Z,0.00
2023-01-22T05:32:58.657Z,0.00
2023-01-22T05:33:58.673Z,0.00
2023-01-22T05:34:58.676Z,0.00
2023-01-22T05:35:58.684Z,0.00
2023-01-22T05:36:58.665Z,0.00
2023-01-22T05:37:58.621Z,0.00
2023-01-22T05:38:58.587Z,0.00
2023-01-22T05:39:58.609Z,0.00
2023-01-22T05:40:58.576Z,0.00
2023-01-22T05:41:58.569Z,0.00
2023-01-22T05:42:58.549Z,0.00
2023-01-22T05:43:58.547Z,0.00
2023-01-22T05:44:58.528Z,0.00
2023-01-22T05:45:58.543Z,0.00
2023-01-22T05:46:58.506Z,0.00
2023-01-22T05:47:58.508Z,0.00
2023-01-22T05:48:58.485Z,0.00
2023-01-22T05:49:58.481Z,0.00
2023-01-22T05:50:58.533Z,0.00
2023-01-22T05:51:58.476Z,0.00
2023-01-22T05:52:58.437Z,0.00
2023-01-22T05:53:58.435Z,0.00
2023-01-22T05:54:58.416Z,0.00
2023-01-22T05:55:58.438Z,0.00
2023-01-22T05:56:58.409Z,0.00
2023-01-22T05:57:58.387Z,0.00
2023-01-22T05:58:58.387Z,0.00
2023-01-22T05:59:58.376Z,0.00
2023-01-22T06:00:58.377Z,0.00
2023-01-22T06:01:58.352Z,0.00
2023-01-22T06:02:58.401Z,0.00
2023-01-22T06:03:58.371Z,0.00
2023-01-22T06:04:58.363Z,0.00
2023-01-22T06:05:58.330Z,0.00
2023-01-22T06:06:58.290Z,0.00
2023-01-22T06:07:58.288Z,0.00
2023-01-22T06:08:58.287Z,0.00
2023-01-22T06:09:58.275Z,0.00
2023-01-22T06:10:58.269Z,0.00
2023-01-22T06:11:58.261Z,0.00
2023-01-22T06:12:58.228Z,0.00
2023-01-22T06:13:58.237Z,0.00
2023-01-22T06:14:58.225Z,0.00
2023-01-22T06:15:58.245Z,0.00
2023-01-22T06:16:58.188Z,0.00
2023-01-22T06:17:58.179Z,0.00
2023-01-22T06:18:58.171Z,0.00
2023-01-22T06:19:58.158Z,0.00
2023-01-22T06:20:58.159Z,0.00
2023-01-22T06:21:58.141Z,0.00
2023-01-22T06:22:58.125Z,0.00
2023-01-22T06:23:58.131Z,0.00
2023-01-22T06:24:58.107Z,0.00
2023-01-22T06:25:58.120Z,0.00
2023-01-22T06:26:58.114Z,0.00
2023-01-22T06:27:58.078Z,0.00
2023-01-22T06:28:58.058Z,0.00
2023-01-22T06:29:58.093Z,0.00
2023-01-22T06:30:58.188Z,0.00
2023-01-22T06:31:58.112Z,0.00
2023-01-22T06:32:58.021Z,0.00
2023-01-22T06:33:58.040Z,0.00
2023-01-22T06:34:58.001Z,0.00
2023-01-22T06:35:57.999Z,0.00
2023-01-22T06:36:57.991Z,0.00
2023-01-22T06:37:57.973Z,0.00
2023-01-22T06:38:57.969Z,0.00
2023-01-22T06:39:57.949Z,0.00
2023-01-22T06:40:57.952Z,0.00
2023-01-22T06:41:57.944Z,0.00
2023-01-22T06:42:57.907Z,0.00
2023-01-22T06:43:57.909Z,0.00
2023-01-22T06:44:57.900Z,0.00
2023-01-22T06:45:57.896Z,0.00
2023-01-22T06:46:57.869Z,0.00
2023-01-22T06:47:57.884Z,0.00
2023-01-22T06:48:57.850Z,0.00
2023-01-22T06:49:57.877Z,0.00
2023-01-22T06:50:57.925Z,4.00
2023-01-22T06:51:57.832Z,4.00
2023-01-22T06:52:57.811Z,0.00
2023-01-22T06:53:57.811Z,4.00
2023-01-22T06:54:57.780Z,4.00
2023-01-22T06:55:57.801Z,4.00
2023-01-22T06:56:57.761Z,4.00
2023-01-22T06:57:57.759Z,8.00
2023-01-22T06:58:57.749Z,8.00
2023-01-22T06:59:57.741Z,8.00
2023-01-22T07:00:57.735Z,8.00
2023-01-22T07:01:57.759Z,8.00
2023-01-22T07:02:57.708Z,16.00
2023-01-22T07:03:57.754Z,16.00
2023-01-22T07:04:57.696Z,16.00
2023-01-22T07:05:57.681Z,20.00
2023-01-22T07:06:57.668Z,24.00
2023-01-22T07:07:57.666Z,28.00
2023-01-22T07:08:57.645Z,28.00
2023-01-22T07:09:57.632Z,32.00
2023-01-22T07:10:57.645Z,36.00
2023-01-22T07:11:57.614Z,36.00
2023-01-22T07:12:57.701Z,44.00
2023-01-22T07:13:57.630Z,48.00
2023-01-22T07:14:57.582Z,56.00
2023-01-22T07:15:57.610Z,60.00
2023-01-22T07:16:57.561Z,68.00
2023-01-22T07:17:57.568Z,76.00
2023-01-22T07:18:57.537Z,84.00
2023-01-22T07:19:57.558Z,92.00
2023-01-22T07:20:57.557Z,92.00
2023-01-22T07:21:57.502Z,100.00
2023-01-22T07:22:59.104Z,108.00
2023-01-22T07:23:57.501Z,120.00
2023-01-22T07:24:57.462Z,128.00
2023-01-22T07:25:57.485Z,136.00
2023-01-22T07:26:57.476Z,148.00
2023-01-22T07:27:57.444Z,156.00
2023-01-22T07:28:57.422Z,168.00
2023-01-22T07:29:57.449Z,184.00
2023-01-22T07:30:57.553Z,192.00
2023-01-22T07:31:57.493Z,196.00
2023-01-22T07:32:57.451Z,196.00
2023-01-22T07:33:57.378Z,200.00
2023-01-22T07:34:57.365Z,212.00
2023-01-22T07:35:57.367Z,232.00
2023-01-22T07:36:57.383Z,244.00
2023-01-22T07:37:57.343Z,252.00
2023-01-22T07:38:57.348Z,268.00
2023-01-22T07:39:57.311Z,288.00
2023-01-22T07:40:57.343Z,304.00
2023-01-22T07:41:57.345Z,328.00
2023-01-22T07:42:57.283Z,352.00
2023-01-22T07:43:57.274Z,376.00
2023-01-22T07:44:57.263Z,400.00
2023-01-22T07:45:57.284Z,420.00
2023-01-22T07:46:57.253Z,444.00
2023-01-22T07:47:57.236Z,476.00
2023-01-22T07:48:57.225Z,500.00
2023-01-22T07:49:57.204Z,528.00
2023-01-22T07:50:57.257Z,560.00
2023-01-22T07:51:57.186Z,592.00
2023-01-22T07:52:57.181Z,624.00
2023-01-22T07:53:57.165Z,676.00
2023-01-22T07:54:57.154Z,700.00
2023-01-22T07:55:57.170Z,728.00
2023-01-22T07:56:57.139Z,756.00
2023-01-22T07:57:57.115Z,788.00
2023-01-22T07:58:57.123Z,836.00
2023-01-22T07:59:57.106Z,888.00
2023-01-22T08:00:57.174Z,912.00
2023-01-22T08:01:57.146Z,940.00
2023-01-22T08:02:57.076Z,960.00
2023-01-22T08:03:57.066Z,944.00
2023-01-22T08:04:57.054Z,960.00
2023-01-22T08:05:57.097Z,980.00
2023-01-22T08:06:57.037Z,948.00
2023-01-22T08:07:57.016Z,972.00
2023-01-22T08:08:57.015Z,1056.00
2023-01-22T08:09:56.995Z,1092.00
2023-01-22T08:10:57.015Z,1148.00
2023-01-22T08:11:56.975Z,1208.00
2023-01-22T08:12:56.974Z,1248.00
2023-01-22T08:13:56.954Z,1252.00
2023-01-22T08:14:56.942Z,1256.00
2023-01-22T08:15:57.009Z,1276.00
2023-01-22T08:16:56.914Z,1288.00
2023-01-22T08:17:56.923Z,1296.00
2023-01-22T08:18:56.893Z,1312.00
2023-01-22T08:19:56.895Z,1344.00
2023-01-22T08:20:56.937Z,1356.00
2023-01-22T08:21:56.864Z,1372.00
2023-01-22T08:22:56.853Z,1416.00
2023-01-22T08:23:56.870Z,1456.00
2023-01-22T08:24:56.833Z,1492.00
2023-01-22T08:25:56.855Z,1552.00
2023-01-22T08:26:56.816Z,1628.00
2023-01-22T08:27:56.832Z,1688.00
2023-01-22T08:28:56.784Z,1716.00
2023-01-22T08:29:56.797Z,1768.00
2023-01-22T08:30:56.805Z,1856.00
2023-01-22T08:31:56.892Z,1956.00
2023-01-22T08:32:56.761Z,2116.00
2023-01-22T08:33:56.748Z,2252.00
2023-01-22T08:34:56.763Z,2212.00
2023-01-22T08:35:56.741Z,2112.00
2023-01-22T08:36:56.704Z,2124.00
2023-01-22T08:37:56.706Z,2216.00
2023-01-22T08:38:56.692Z,2276.00
2023-01-22T08:39:56.698Z,2332.00
2023-01-22T08:40:56.690Z,2324.00
2023-01-22T08:41:56.671Z,2344.00
2023-01-22T08:42:56.649Z,2472.00
2023-01-22T08:43:56.636Z,2624.00
2023-01-22T08:44:56.624Z,2768.00
2023-01-22T08:45:56.669Z,2956.00
2023-01-22T08:46:56.607Z,3124.00
2023-01-22T08:47:56.602Z,3232.00
2023-01-22T08:48:56.597Z,3416.00
2023-01-22T08:49:56.574Z,3556.00
2023-01-22T08:50:56.615Z,3492.00
2023-01-22T08:51:56.566Z,3308.00
2023-01-22T08:52:56.556Z,3328.00
2023-01-22T08:53:56.526Z,3392.00
2023-01-22T08:54:56.505Z,3372.00
2023-01-22T08:55:56.527Z,3460.00
2023-01-22T08:56:56.502Z,3616.00
2023-01-22T08:57:56.544Z,3692.00
2023-01-22T08:58:56.495Z,3736.00
2023-01-22T09:00:01.368Z,3872.00
2023-01-22T09:00:57.516Z,4096.00
2023-01-22T09:01:56.457Z,4188.00
2023-01-22T09:02:56.432Z,4164.00
2023-01-22T09:03:56.536Z,4304.00
2023-01-22T09:04:56.437Z,4588.00
2023-01-22T09:05:56.468Z,4932.00
2023-01-22T09:06:56.418Z,5084.00
2023-01-22T09:07:56.414Z,5048.00
2023-01-22T09:08:56.369Z,4960.00
2023-01-22T09:09:56.363Z,4852.00
2023-01-22T09:10:56.358Z,4740.00
2023-01-22T09:11:56.356Z,4808.00
2023-01-22T09:12:56.316Z,4944.00
2023-01-22T09:13:56.317Z,5076.00
2023-01-22T09:14:56.327Z,5520.00
2023-01-22T09:15:58.449Z,5836.00
2023-01-22T09:16:56.298Z,5720.00
2023-01-22T09:17:56.276Z,5484.00
2023-01-22T09:18:56.263Z,5268.00
2023-01-22T09:19:56.256Z,4972.00
2023-01-22T09:20:56.246Z,4708.00
2023-01-22T09:21:56.245Z,4616.00
2023-01-22T09:22:56.217Z,4648.00
2023-01-22T09:23:56.220Z,4712.00
2023-01-22T09:24:56.197Z,4708.00
2023-01-22T09:25:56.208Z,4860.00
2023-01-22T09:26:56.177Z,5104.00
2023-01-22T09:27:56.166Z,5068.00
2023-01-22T09:28:56.251Z,4852.00
2023-01-22T09:29:56.147Z,4788.00
2023-01-22T09:30:56.203Z,4880.00
2023-01-22T09:31:56.177Z,4912.00
2023-01-22T09:32:56.168Z,4836.00
2023-01-22T09:33:56.113Z,4948.00
2023-01-22T09:34:56.111Z,5024.00
2023-01-22T09:35:56.088Z,5236.00
2023-01-22T09:36:56.063Z,5560.00
2023-01-22T09:37:56.057Z,5800.00
2023-01-22T09:38:56.161Z,6072.00
2023-01-22T09:39:56.037Z,6360.00
2023-01-22T09:40:56.029Z,6392.00
2023-01-22T09:41:56.037Z,6104.00
2023-01-22T09:42:56.000Z,6044.00
2023-01-22T09:43:55.996Z,6172.00
2023-01-22T09:44:55.998Z,6208.00
2023-01-22T09:45:55.994Z,5932.00
2023-01-22T09:46:55.962Z,5400.00
2023-01-22T09:47:55.961Z,5080.00
2023-01-22T09:48:55.940Z,4968.00
2023-01-22T09:49:55.929Z,4888.00
2023-01-22T09:50:55.951Z,4852.00
2023-01-22T09:51:55.898Z,4912.00
2023-01-22T09:52:55.890Z,5092.00
2023-01-22T09:53:55.905Z,5348.00
2023-01-22T09:54:55.876Z,5544.00
2023-01-22T09:55:55.880Z,5660.00
2023-01-22T09:56:55.852Z,5700.00
2023-01-22T09:57:55.849Z,5720.00
2023-01-22T09:58:55.829Z,5916.00
2023-01-22T09:59:55.823Z,6440.00
2023-01-22T10:00:55.878Z,6932.00
2023-01-22T10:01:55.799Z,7064.00
2023-01-22T10:02:55.779Z,6832.00
2023-01-22T10:03:55.768Z,6804.00
2023-01-22T10:04:55.821Z,7020.00
2023-01-22T10:05:55.767Z,7092.00
2023-01-22T10:06:55.729Z,7056.00
2023-01-22T10:07:55.771Z,6804.00
2023-01-22T10:08:55.742Z,6476.00
2023-01-22T10:09:55.721Z,6348.00
2023-01-22T10:10:55.707Z,6508.00
2023-01-22T10:11:55.687Z,6648.00
2023-01-22T10:12:55.661Z,6728.00
2023-01-22T10:13:55.660Z,6936.00
2023-01-22T10:14:55.689Z,7228.00
2023-01-22T10:15:55.652Z,7420.00
2023-01-22T10:16:55.673Z,7268.00
2023-01-22T10:17:55.626Z,7104.00
2023-01-22T10:18:56.917Z,7152.00
2023-01-22T10:19:55.604Z,7356.00
2023-01-22T10:20:55.637Z,7816.00
2023-01-22T10:21:55.601Z,8244.00
2023-01-22T10:22:55.619Z,8484.00
2023-01-22T10:23:55.553Z,8668.00
2023-01-22T10:24:55.546Z,8644.00
2023-01-22T10:25:55.548Z,8636.00
2023-01-22T10:26:55.529Z,8628.00
2023-01-22T10:27:55.512Z,8380.00
2023-01-22T10:28:55.504Z,8092.00
2023-01-22T10:29:55.522Z,7964.00
2023-01-22T10:30:55.600Z,7844.00
2023-01-22T10:31:55.595Z,7724.00
2023-01-22T10:32:55.451Z,7740.00
2023-01-22T10:33:55.433Z,7996.00
2023-01-22T10:34:55.438Z,8032.00
2023-01-22T10:35:55.433Z,7728.00
2023-01-22T10:36:55.410Z,7392.00
2023-01-22T10:37:55.402Z,7376.00
2023-01-22T10:38:55.394Z,7496.00
2023-01-22T10:39:55.387Z,7616.00
2023-01-22T10:40:55.394Z,7772.00
2023-01-22T10:41:55.353Z,7728.00
2023-01-22T10:42:55.342Z,8092.00
2023-01-22T10:43:55.336Z,8272.00
2023-01-22T10:44:55.332Z,8232.00
2023-01-22T10:45:55.419Z,8580.00
2023-01-22T10:46:55.302Z,9008.00
2023-01-22T10:47:55.291Z,8912.00
2023-01-22T10:48:55.275Z,8600.00
2023-01-22T10:49:55.275Z,8664.00
2023-01-22T10:50:55.300Z,8956.00
2023-01-22T10:51:55.255Z,9248.00
2023-01-22T10:52:55.243Z,9700.00
2023-01-22T10:53:55.237Z,9940.00
2023-01-22T10:54:55.226Z,10072.00
2023-01-22T10:55:55.222Z,10220.00
2023-01-22T10:56:55.193Z,10284.00
2023-01-22T10:57:55.196Z,9980.00
2023-01-22T10:58:55.175Z,9664.00
2023-01-22T10:59:55.178Z,9604.00
2023-01-22T11:00:55.174Z,9272.00
2023-01-22T11:01:55.136Z,9028.00
2023-01-22T11:02:55.145Z,9068.00
2023-01-22T11:03:55.130Z,9060.00
2023-01-22T11:04:55.122Z,8940.00
2023-01-22T11:05:55.119Z,9200.00
2023-01-22T11:06:55.104Z,9472.00
2023-01-22T11:07:55.070Z,9764.00
2023-01-22T11:08:55.066Z,9720.00
2023-01-22T11:09:55.041Z,9592.00
2023-01-22T11:10:55.060Z,8804.00
2023-01-22T11:11:55.030Z,8356.00
2023-01-22T11:12:55.029Z,8032.00
2023-01-22T11:13:55.031Z,8124.00
2023-01-22T11:14:55.094Z,8352.00
2023-01-22T11:15:55.100Z,8196.00
2023-01-22T11:16:54.975Z,8048.00
2023-01-22T11:17:54.969Z,7760.00
2023-01-22T11:18:54.947Z,7000.00
2023-01-22T11:19:54.963Z,6876.00
2023-01-22T11:20:54.950Z,7236.00
2023-01-22T11:21:54.925Z,7504.00
2023-01-22T11:22:54.977Z,7596.00
2023-01-22T11:23:54.915Z,7704.00
2023-01-22T11:24:54.890Z,7832.00
2023-01-22T11:25:54.909Z,7992.00
2023-01-22T11:26:54.877Z,7644.00
2023-01-22T11:27:54.847Z,6784.00
2023-01-22T11:28:54.849Z,6028.00
2023-01-22T11:29:54.843Z,5800.00
2023-01-22T11:30:54.931Z,5784.00
2023-01-22T11:31:54.863Z,5724.00
2023-01-22T11:32:54.803Z,5696.00
2023-01-22T11:33:54.778Z,5868.00
2023-01-22T11:34:54.778Z,5900.00
2023-01-22T11:35:54.797Z,5936.00
2023-01-22T11:36:54.763Z,5816.00
2023-01-22T11:37:54.742Z,5724.00
2023-01-22T11:38:54.738Z,5864.00
2023-01-22T11:39:54.717Z,6468.00
2023-01-22T11:40:54.733Z,7068.00
2023-01-22T11:41:54.698Z,6992.00
2023-01-22T11:42:54.689Z,6928.00
2023-01-22T11:43:54.678Z,6720.00
2023-01-22T11:44:54.669Z,6368.00
2023-01-22T11:45:54.715Z,6424.00
2023-01-22T11:46:54.677Z,6544.00
2023-01-22T11:47:54.629Z,6528.00
2023-01-22T11:48:54.620Z,6324.00
2023-01-22T11:49:54.617Z,5952.00
2023-01-22T11:50:54.667Z,5700.00
2023-01-22T11:51:54.597Z,5516.00
2023-01-22T11:52:54.606Z,5136.00
2023-01-22T11:53:54.567Z,4768.00
2023-01-22T11:54:54.558Z,4632.00
2023-01-22T11:55:54.578Z,4564.00
2023-01-22T11:56:54.586Z,4716.00
2023-01-22T11:57:54.519Z,4896.00
2023-01-22T11:58:54.519Z,5040.00
2023-01-22T11:59:54.499Z,5184.00
2023-01-22T12:00:54.509Z,5084.00
2023-01-22T12:01:54.483Z,4896.00
2023-01-22T12:02:54.548Z,4856.00
2023-01-22T12:03:54.500Z,4896.00
2023-01-22T12:04:54.519Z,4816.00
2023-01-22T12:05:54.485Z,4708.00
2023-01-22T12:06:54.441Z,4684.00
2023-01-22T12:07:54.429Z,4796.00
2023-01-22T12:08:54.415Z,4696.00
2023-01-22T12:09:54.413Z,4688.00
2023-01-22T12:10:55.077Z,4888.00
2023-01-22T12:11:54.413Z,5284.00
2023-01-22T12:12:54.387Z,5492.00
2023-01-22T12:13:54.371Z,5292.00
2023-01-22T12:14:54.348Z,5040.00
2023-01-22T12:15:54.375Z,4928.00
2023-01-22T12:16:54.321Z,4812.00
2023-01-22T12:17:54.333Z,4820.00
2023-01-22T12:18:54.292Z,5080.00
2023-01-22T12:19:54.280Z,5212.00
2023-01-22T12:20:54.280Z,5084.00
2023-01-22T12:21:54.260Z,4932.00
2023-01-22T12:22:54.252Z,4952.00
2023-01-22T12:23:54.243Z,4836.00
2023-01-22T12:24:54.231Z,4484.00
2023-01-22T12:25:54.271Z,4168.00
2023-01-22T12:26:54.201Z,3968.00
2023-01-22T12:27:54.192Z,3852.00
2023-01-22T12:28:54.203Z,3800.00
2023-01-22T12:29:54.186Z,3896.00
2023-01-22T12:30:54.320Z,3928.00
2023-01-22T12:31:54.240Z,3936.00
2023-01-22T12:32:54.135Z,3896.00
2023-01-22T12:33:54.138Z,3848.00
2023-01-22T12:34:54.148Z,3936.00
2023-01-22T12:35:54.132Z,4132.00
2023-01-22T12:36:54.102Z,4340.00
2023-01-22T12:37:54.112Z,4504.00
2023-01-22T12:38:54.080Z,4700.00
2023-01-22T12:39:54.069Z,4676.00
2023-01-22T12:40:54.052Z,4348.00
2023-01-22T12:41:54.057Z,4096.00
2023-01-22T12:42:54.182Z,3836.00
2023-01-22T12:43:54.108Z,3544.00
2023-01-22T12:44:54.064Z,3260.00
2023-01-22T12:45:53.995Z,3160.00